Información del aeropuerto LEVD

Información de pista
Pista 05 Longitud 9843 ft Anchura 197 ft
Elevación 2768 ft Umbral 0 ft Rumbo 45
Pista 23 Longitud 9843 ft Anchura 197 ft
Elevación 2775 ft Umbral 0 ft Rumbo 225
Pista 15 Longitud 2976 ft Anchura 197 ft
Elevación 2770 ft Umbral 0 ft Rumbo 144
Pista 33 Longitud 2976 ft Anchura 197 ft
Elevación 2771 ft Umbral 0 ft Rumbo 324
Frecuencias del aeropuerto
Tipo TWR Nombre TWR Frecuencia 122.2 MHZ
Radioayudas del aeropuerto
Tipo TACAN Nombre Valladolid Frecuencia 108200 KHZ
Tipo NDB Nombre Valladolid Frecuencia 342 KHZ
Información meteorológica del aeropuerto y NOTAM
ADDS - METARS form results

(0339 UTC 28 February 2021)
Data provider http://aviationweather.gov/metar/data/
 
METAR text: LEVD 280330Z AUTO 05011KT CAVOK 02/00 Q1021
Conditions at: LEVD (VALLADOLID(MIL/C, ES) observed 0330 UTC 28 February 2021
Temperature: 2.0°C (36°F)
Dewpoint: 0.0°C (32°F) [RH = 87%]
Pressure (altimeter): 30.15 inches Hg (1021.0 mb)
Winds: from the NE (50 degrees) at 13 MPH (11 knots; 5.7 m/s)
Visibility: 6 or more miles (10+ km)
Ceiling: ceiling and visibility are OK
Clouds: unknown
Weather: no significant weather observed at this time

METAR text: LEVD 280300Z AUTO 03010KT CAVOK 02/00 Q1021
Conditions at: LEVD (VALLADOLID(MIL/C, ES) observed 0300 UTC 28 February 2021
Temperature: 2.0°C (36°F)
Dewpoint: 0.0°C (32°F) [RH = 87%]
Pressure (altimeter): 30.15 inches Hg (1021.0 mb)
Winds: from the NNE (30 degrees) at 12 MPH (10 knots; 5.1 m/s)
Visibility: 6 or more miles (10+ km)
Ceiling: ceiling and visibility are OK
Clouds: unknown
Weather: no significant weather observed at this time

Forecast for: LEVD (VALLADOLID(MIL/C, ES)
Text: TAF LEVD 280200Z 2803/0103 05012KT CAVOK TX13/2815Z TN00/2806Z
Forecast period: 0300 to 1100 UTC 28 February 2021
Forecast type: FROM: standard forecast or significant change
Winds: from the NE (50 degrees) at 14 MPH (12 knots; 6.2 m/s)
Visibility: 6 or more miles (10+ km)
Ceiling: unknown
Clouds: missing
Weather: no significant weather forecast for this period
Text: BECMG 2811/2813 VRB05KT
Forecast period: 1100 UTC 28 February 2021 to 0300 UTC 01 March 2021
Forecast type: BECOMING: Conditions expected to become as follows by 1300 UTC 28 February 2021
Winds: variable direction winds at 6 MPH (5 knots; 2.6 m/s)
Visibility: 6 or more miles (10+ km)
Ceiling: unknown
Clouds: missing
Weather: no significant weather forecast for this period
Text: PROB30
Forecast period: 1800 UTC 28 February 2021 to 0300 UTC 01 March 2021
Forecast type: TEMPORARY: The following changes expected for less than half the time period
Visibility: 1.86 miles (2.99 km)
Ceiling: at least 12,000 feet AGL
Clouds: scattered clouds at 3000 feet AGL
Weather: SHRA  (rain showers)